Latest Weather Observations for Ayr

IDQ60801

Issued at 11:32 pm EST Saturday 25 March 2017 (issued every 30 minutes, with the page automatically refreshed every 10 minutes)

About weather observations | Map of weather stations | Latest weather observations for QLD | Other Formats
Station Details ID: 033002 Name: AYR DPI RESEARCH STN Lat: -19.62 Lon: 147.38 Height: 17.0 m
Data from the previous 72 hours. | See also: Recent months at Ayr
Date/Time
EST
Temp
°C
App
Temp
°C
Dew
Point
°C
Rel
Hum
%
Delta-T
°C
Wind Press
QNH
hPa
Press
MSL
hPa
Rain since
9am
mm
Dir  Spd
km/h
Gust
km/h
Spd
kts
Gust
kts
25/11:30pm 25.2 27.2 20.0 73 3.4 S 9 11 5 6 - - 0.2
25/11:00pm 24.6 26.7 20.1 76 2.9 S 9 13 5 7 - - 0.2
25/10:30pm 24.4 26.9 20.3 78 2.7 S 7 9 4 5 - - 0.2
25/10:00pm 24.5 27.2 20.2 77 2.8 SSW 6 7 3 4 - - 0.2
25/09:30pm 25.3 29.3 20.5 75 3.1 CALM 0 0 0 0 - - 0.2
25/09:00pm 26.7 28.8 19.3 64 4.8 ESE 7 11 4 6 - - 0.2
25/08:30pm 27.0 28.6 19.9 65 4.6 SE 11 17 6 9 - - 0.2
25/08:00pm 26.9 29.9 21.2 71 3.8 ESE 7 17 4 9 - - 0.2
25/07:30pm 27.1 30.5 20.9 69 4.1 ESE 4 7 2 4 - - 0.2
25/07:00pm 27.9 30.6 20.7 65 4.8 E 7 13 4 7 - - 0.2
25/06:30pm 28.6 30.8 21.1 64 5.0 E 11 17 6 9 - - 0.2
25/06:00pm 29.3 30.7 21.0 61 5.5 ESE 15 28 8 15 - - 0.2
25/05:30pm 30.2 31.6 21.0 58 6.1 ESE 15 24 8 13 - - 0.2
25/05:00pm 30.6 32.6 20.8 56 6.5 SE 11 24 6 13 - - 0.2
25/04:30pm 29.3 33.3 23.7 72 3.9 WSW 9 11 5 6 - - 0.2
25/04:00pm 27.6 31.2 23.0 76 3.1 SSW 9 15 5 8 - - 0.2
25/03:30pm 27.2 29.0 22.6 76 3.1 S 17 24 9 13 - - 0.2
25/03:00pm 31.8 34.4 21.9 55 6.7 ESE 11 22 6 12 - - 0.0
25/02:30pm 31.9 33.6 21.7 54 6.9 SE 15 22 8 12 - - 0.0
25/02:00pm 32.2 34.5 22.0 55 6.9 SSE 13 20 7 11 - - 0.0
25/01:30pm 31.4 33.1 21.0 54 7.0 SSE 13 22 7 12 - - 0.0
25/01:00pm 31.8 33.1 21.6 54 6.9 SSE 17 26 9 14 - - 0.0
25/12:30pm 31.8 33.2 21.9 55 6.7 SE 17 26 9 14 - - 0.0
25/12:00pm 31.2 31.8 21.1 55 6.8 SSE 19 30 10 16 - - 0.0
25/11:30am 30.9 32.7 22.5 61 5.7 SSE 17 28 9 15 - - 0.0
25/11:00am 30.0 31.4 21.1 59 5.9 SSE 15 24 8 13 - - 0.0
25/10:30am 29.6 30.4 20.7 58 5.9 SSE 17 26 9 14 - - 0.0
25/10:00am 29.2 30.9 20.9 61 5.5 SSE 13 20 7 11 - - 0.0
25/09:30am 28.4 29.3 20.1 60 5.4 S 15 26 8 14 - - 0.0
25/09:00am 27.9 29.6 21.7 69 4.2 SSW 15 20 8 11 - - 0.0
25/08:30am 27.0 28.2 20.6 68 4.2 S 15 20 8 11 - - 0.0
25/08:00am 26.1 27.3 20.7 72 3.5 SSW 15 20 8 11 - - 0.0
25/07:30am 24.7 26.3 20.8 79 2.6 SSW 13 17 7 9 - - 0.0
25/07:00am 23.0 25.4 20.1 84 1.9 WSW 7 9 4 5 - - 0.0
25/06:30am 22.6 24.9 19.8 84 1.8 SW 7 9 4 5 - - 0.0
25/06:00am 22.5 24.8 19.9 85 1.7 SW 7 9 4 5 - - 0.0
25/05:30am 22.8 25.2 20.0 84 1.8 SW 7 9 4 5 - - 0.0
25/05:00am 22.9 25.0 20.1 84 1.8 SW 9 11 5 6 - - 0.0
25/04:30am 23.0 24.8 20.3 85 1.7 SW 11 13 6 7 - - 0.0
25/04:00am 23.2 25.7 20.3 84 1.9 SSW 7 9 4 5 - - 0.0
25/03:30am 23.2 25.4 20.5 85 1.8 SW 9 11 5 6 - - 0.0
25/03:00am 23.4 25.6 20.5 84 1.9 SW 9 11 5 6 - - 0.0
25/02:30am 23.6 25.8 20.5 83 2.0 SSW 9 20 5 11 - - 0.0
25/02:00am 23.5 25.9 20.8 85 1.8 SW 9 13 5 7 - - 0.0
25/01:30am 23.7 26.5 20.8 84 1.9 SSW 7 9 4 5 - - 0.0
25/01:00am 23.7 26.5 20.8 84 1.9 SW 7 9 4 5 - - 0.0
25/12:30am 24.1 27.1 20.8 82 2.2 SSW 6 7 3 4 - - 0.0
25/12:00am 24.7 28.1 21.0 80 2.4 S 4 9 2 5 - - 0.0
 
Date/Time
EST
Temp
°C
App
Temp
°C
Dew
Point
°C
Rel
Hum
%
Delta-T
°C
Wind Press
QNH
hPa
Press
MSL
hPa
Rain since
9am
mm
Dir  Spd
km/h
Gust
km/h
Spd
kts
Gust
kts
24/11:30pm 24.9 27.8 21.0 79 2.6 SSE 7 11 4 6 - - 0.0
24/11:00pm 25.4 28.4 21.3 78 2.7 SE 7 13 4 7 - - 0.0
24/10:30pm 24.8 27.9 21.1 80 2.4 SSE 6 7 3 4 - - 0.0
24/10:00pm 25.2 28.3 21.5 80 2.5 SSE 7 13 4 7 - - 0.0
24/09:30pm 25.4 28.5 21.5 79 2.6 SE 7 13 4 7 - - 0.0
24/09:00pm 25.7 28.5 21.6 78 2.7 ESE 9 11 5 6 - - 0.0
24/08:30pm 25.6 28.7 21.5 78 2.7 SE 7 11 4 6 - - 0.0
24/08:00pm 26.1 29.1 21.3 75 3.2 SE 7 9 4 5 - - 0.0
24/07:30pm 26.7 29.5 21.5 73 3.5 ESE 9 13 5 7 - - 0.0
24/07:00pm 26.7 29.9 21.7 74 3.3 ESE 7 11 4 6 - - 0.0
24/06:30pm 27.3 31.8 22.9 77 3.0 E 4 9 2 5 - - 0.0
24/06:00pm 28.4 32.1 22.6 71 3.9 E 7 11 4 6 - - 0.0
24/05:30pm 28.9 31.5 21.9 66 4.7 ESE 11 20 6 11 - - 0.0
24/05:00pm 29.3 31.5 21.8 64 5.0 ESE 13 20 7 11 - - 0.0
24/04:30pm 29.6 31.2 21.5 61 5.4 ESE 15 24 8 13 - - 0.0
24/04:00pm 29.9 31.6 21.0 59 5.9 ESE 13 20 7 11 - - 0.0
24/03:30pm 30.6 31.6 21.7 59 6.0 ESE 19 26 10 14 - - 0.0
24/03:00pm 30.6 31.6 22.2 61 5.7 ESE 20 32 11 17 - - 0.0
24/02:30pm 30.6 31.7 21.9 59 5.9 ESE 19 28 10 15 - - 0.0
24/02:00pm 30.4 31.5 22.0 60 5.7 ESE 19 28 10 15 - - 0.0
24/01:30pm 30.0 31.0 22.2 63 5.3 ESE 20 33 11 18 - - 0.0
24/01:00pm 30.2 31.0 21.3 59 6.0 E 19 32 10 17 - - 0.0
24/12:30pm 30.5 32.4 22.7 63 5.3 E 17 24 9 13 - - 0.0
24/12:00pm 30.0 31.6 22.2 63 5.3 ESE 17 26 9 14 - - 0.0
24/11:30am 30.3 32.8 23.2 65 4.9 SE 15 24 8 13 - - 0.0
24/11:00am 29.2 31.7 22.4 66 4.6 SE 13 20 7 11 - - 0.0
24/10:30am 29.0 31.4 23.7 73 3.7 SE 17 26 9 14 - - 0.0
24/10:00am 27.5 30.4 23.1 77 3.0 ESE 13 24 7 13 - - 0.0
24/09:30am 27.4 30.3 23.2 78 2.9 SE 13 20 7 11 - - 0.0
24/09:00am 26.1 29.0 22.4 80 2.5 SE 11 19 6 10 - - 13.2
24/08:30am 25.8 28.6 22.3 81 2.4 SSE 11 19 6 10 - - 13.2
24/08:00am 25.6 28.6 22.7 84 2.0 SSE 11 17 6 9 - - 13.2
24/07:30am 24.9 28.2 22.6 87 1.5 S 9 13 5 7 - - 13.2
24/07:00am 24.1 27.5 22.0 88 1.4 S 7 11 4 6 - - 13.2
24/06:30am 23.7 27.0 21.8 89 1.3 SSE 7 11 4 6 - - 13.2
24/06:00am 23.9 27.9 22.0 89 1.3 S 4 7 2 4 - - 13.2
24/05:30am 24.0 27.6 22.1 89 1.3 S 6 7 3 4 - - 13.2
24/05:00am 24.0 28.0 22.1 89 1.3 S 4 7 2 4 - - 13.2
24/04:30am 24.0 28.8 22.1 89 1.3 CALM 0 0 0 0 - - 13.2
24/04:00am 24.0 28.8 22.1 89 1.3 CALM 0 6 0 3 - - 13.2
24/03:30am 24.1 27.9 22.4 90 1.1 SSW 6 7 3 4 - - 13.2
24/03:00am 23.9 27.6 22.2 90 1.1 SSW 6 7 3 4 - - 13.2
24/02:30am 23.9 27.5 22.0 89 1.3 SSW 6 7 3 4 - - 13.0
24/02:00am 24.1 27.8 22.2 89 1.3 S 6 7 3 4 - - 13.0
24/01:30am 24.0 27.6 22.1 89 1.3 S 6 9 3 5 - - 13.0
24/01:00am 23.8 26.8 21.9 89 1.3 S 9 11 5 6 - - 13.0
24/12:30am 23.7 27.6 21.8 89 1.3 S 4 9 2 5 - - 13.0
24/12:00am 23.7 27.0 21.8 89 1.3 SSW 7 9 4 5 - - 12.6
 
Date/Time
EST
Temp
°C
App
Temp
°C
Dew
Point
°C
Rel
Hum
%
Delta-T
°C
Wind Press
QNH
hPa
Press
MSL
hPa
Rain since
9am
mm
Dir  Spd
km/h
Gust
km/h
Spd
kts
Gust
kts
23/11:30pm 23.7 27.2 21.8 89 1.3 WSW 6 9 3 5 - - 12.2
23/11:00pm 23.8 28.4 21.7 88 1.4 CALM 0 0 0 0 - - 11.8
23/10:30pm 23.6 27.7 21.5 88 1.4 NNW 2 6 1 3 - - 10.8
23/10:00pm 23.8 27.6 21.7 88 1.4 NNE 4 9 2 5 - - 9.2
23/09:30pm 24.0 26.9 21.7 87 1.5 NE 9 17 5 9 - - 8.0
23/09:00pm 24.2 27.5 21.9 87 1.5 ENE 7 13 4 7 - - 7.4
23/08:30pm 24.3 26.6 22.0 87 1.5 ENE 13 22 7 12 - - 7.0
23/08:00pm 25.0 26.9 22.7 87 1.5 E 17 28 9 15 - - 6.6
23/07:30pm 25.2 27.3 23.1 88 1.4 ESE 17 28 9 15 - - 6.4
23/07:00pm 25.4 27.8 22.9 86 1.7 SE 15 24 8 13 - - 4.6
23/06:30pm 26.5 29.4 23.2 82 2.2 ESE 13 20 7 11 - - 3.8
23/06:00pm 27.4 30.2 23.0 77 3.0 E 13 20 7 11 - - 3.8
23/05:30pm 27.8 31.3 23.6 78 2.9 E 11 19 6 10 - - 3.6
23/05:00pm 28.4 31.5 23.5 75 3.4 E 13 20 7 11 - - 3.6
23/04:30pm 28.6 32.3 23.9 75 3.2 E 11 19 6 10 - - 3.6
23/04:00pm 28.7 32.6 24.3 77 3.1 E 11 15 6 8 - - 3.6
23/03:30pm 27.9 32.2 23.7 78 2.9 N 7 11 4 6 - - 3.6
23/03:00pm 27.3 33.1 24.0 82 2.3 CALM 0 0 0 0 - - 3.6
23/02:30pm 26.7 31.5 24.2 86 1.7 WNW 6 9 3 5 - - 3.6
23/02:00pm 26.6 31.3 23.9 85 1.9 W 6 7 3 4 - - 3.6
23/01:30pm 27.0 32.3 24.3 85 1.9 W 4 7 2 4 - - 2.4
23/01:00pm 26.6 31.9 23.7 84 2.0 SSE 2 7 1 4 - - 2.4
23/12:30pm 27.4 31.5 24.0 82 2.3 W 9 11 5 6 - - 0.0
23/12:00pm 27.2 31.9 23.9 82 2.3 WNW 6 9 3 5 - - 0.0
23/11:30am 27.6 33.2 23.6 79 2.7 CALM 0 0 0 0 - - 0.0
23/11:00am 27.6 32.7 23.4 78 2.9 SE 2 6 1 3 - - 0.0
23/10:30am 27.7 32.1 23.5 78 2.9 ESE 6 9 3 5 - - 0.0
23/10:00am 27.5 30.9 23.3 78 2.9 ESE 11 19 6 10 - - 0.0
23/09:30am 27.6 32.6 23.8 80 2.6 SSE 4 11 2 6 - - 0.0
23/09:00am 27.6 31.5 24.2 82 2.4 S 11 13 6 7 - - 1.4
23/08:30am 26.7 30.2 22.8 79 2.6 SSE 9 13 5 7 - - 1.4
23/08:00am 25.8 29.8 23.7 88 1.4 SSE 9 15 5 8 - - 1.2
23/07:30am 25.2 29.4 23.1 88 1.4 SSE 6 11 3 6 - - 1.2
23/07:00am 25.0 28.9 22.9 88 1.4 SE 7 13 4 7 - - 1.2
23/06:30am 24.8 28.6 22.7 88 1.4 ESE 7 11 4 6 - - 1.2
23/06:00am 24.7 28.6 22.6 88 1.4 SE 6 9 3 5 - - 1.2
23/05:30am 24.8 28.8 22.7 88 1.4 S 6 9 3 5 - - 0.8
23/05:00am 24.9 28.8 23.0 89 1.3 WSW 7 9 4 5 - - 0.8
23/04:30am 25.0 29.1 22.9 88 1.4 E 6 11 3 6 - - 0.8
23/04:00am 24.8 29.0 22.5 87 1.5 SSE 4 7 2 4 - - 0.8
23/03:30am 24.9 28.2 22.6 87 1.5 ESE 9 13 5 7 - - 0.8
23/03:00am 25.0 28.8 22.7 87 1.5 ESE 7 11 4 6 - - 0.8
23/02:30am 25.3 30.6 23.0 87 1.6 CALM 0 6 0 3 - - 0.8
23/02:00am 25.3 29.8 23.0 87 1.6 SSE 4 7 2 4 - - 0.8
23/01:30am 25.4 29.4 23.1 87 1.6 S 7 13 4 7 - - 0.8
23/01:00am 25.5 29.7 23.2 87 1.6 S 6 7 3 4 - - 0.8
23/12:30am 25.8 31.0 23.5 87 1.6 WSW 2 7 1 4 - - 0.8
23/12:00am 25.9 31.0 23.4 86 1.7 NE 2 7 1 4 - - 0.8

Other Formats:

Comma delimited format used in spreadsheet applications
http://www.bom.gov.au/fwo/IDQ60801/IDQ60801.95295.axf

JavaScript Object Notation format (JSON) in row-major order
http://www.bom.gov.au/fwo/IDQ60801/IDQ60801.95295.json